createdAt,value
2018-03-04T00:00:48.083Z,0.00
2018-03-04T00:01:48.101Z,0.00
2018-03-04T00:02:48.111Z,0.00
2018-03-04T00:03:48.122Z,0.00
2018-03-04T00:04:48.137Z,0.00
2018-03-04T00:05:48.147Z,0.00
2018-03-04T00:06:48.163Z,0.00
2018-03-04T00:07:48.176Z,0.00
2018-03-04T00:08:48.181Z,0.00
2018-03-04T00:09:48.193Z,0.00
2018-03-04T00:10:48.207Z,0.00
2018-03-04T00:11:48.218Z,0.00
2018-03-04T00:12:48.233Z,0.00
2018-03-04T00:13:48.246Z,0.00
2018-03-04T00:14:48.258Z,0.00
2018-03-04T00:15:48.267Z,0.00
2018-03-04T00:16:48.281Z,0.00
2018-03-04T00:17:48.291Z,0.00
2018-03-04T00:18:48.306Z,0.00
2018-03-04T00:19:48.319Z,0.00
2018-03-04T00:20:48.326Z,0.00
2018-03-04T00:21:48.340Z,0.00
2018-03-04T00:22:48.355Z,0.00
2018-03-04T00:23:48.368Z,0.00
2018-03-04T00:24:48.377Z,0.00
2018-03-04T00:25:48.387Z,0.00
2018-03-04T00:26:48.401Z,0.00
2018-03-04T00:27:48.411Z,0.00
2018-03-04T00:28:48.427Z,0.00
2018-03-04T00:29:48.436Z,0.00
2018-03-04T00:30:48.456Z,0.00
2018-03-04T00:31:48.459Z,0.00
2018-03-04T00:32:48.478Z,0.00
2018-03-04T00:33:48.485Z,0.00
2018-03-04T00:34:48.497Z,0.00
2018-03-04T00:35:48.510Z,0.00
2018-03-04T00:36:48.525Z,0.00
2018-03-04T00:37:48.535Z,0.00
2018-03-04T00:38:48.547Z,0.00
2018-03-04T00:39:48.563Z,0.00
2018-03-04T00:40:48.570Z,0.00
2018-03-04T00:41:48.580Z,0.00
2018-03-04T00:42:48.594Z,0.00
2018-03-04T00:43:48.609Z,0.00
2018-03-04T00:44:48.614Z,0.00
2018-03-04T00:45:48.629Z,0.00
2018-03-04T00:46:48.645Z,0.00
2018-03-04T00:47:48.659Z,0.00
2018-03-04T00:48:48.674Z,0.00
2018-03-04T00:49:48.678Z,0.00
2018-03-04T00:50:48.692Z,0.00
2018-03-04T00:51:48.699Z,0.00
2018-03-04T00:52:48.714Z,0.00
2018-03-04T00:53:48.724Z,0.00
2018-03-04T00:54:48.738Z,0.00
2018-03-04T00:55:48.752Z,0.00
2018-03-04T00:56:48.763Z,0.00
2018-03-04T00:57:48.776Z,0.00
2018-03-04T00:58:48.787Z,0.00
2018-03-04T00:59:48.799Z,0.00
2018-03-04T01:00:48.809Z,0.00
2018-03-04T01:01:48.817Z,0.00
2018-03-04T01:02:48.837Z,0.00
2018-03-04T01:03:48.843Z,0.00
2018-03-04T01:04:48.865Z,0.00
2018-03-04T01:05:48.872Z,0.00
2018-03-04T01:06:48.878Z,0.00
2018-03-04T01:07:48.896Z,0.00
2018-03-04T01:08:48.903Z,0.00
2018-03-04T01:09:48.913Z,0.00
2018-03-04T01:10:48.930Z,0.00
2018-03-04T01:11:48.938Z,0.00
2018-03-04T01:12:48.952Z,0.00
2018-03-04T01:13:48.966Z,0.00
2018-03-04T01:14:48.977Z,0.00
2018-03-04T01:15:48.990Z,0.00
2018-03-04T01:16:48.996Z,0.00
2018-03-04T01:17:49.010Z,0.00
2018-03-04T01:18:49.022Z,0.00
2018-03-04T01:19:49.035Z,0.00
2018-03-04T01:20:49.046Z,0.00
2018-03-04T01:21:49.057Z,0.00
2018-03-04T01:22:49.072Z,0.00
2018-03-04T01:23:49.083Z,0.00
2018-03-04T01:24:49.097Z,0.00
2018-03-04T01:25:49.106Z,0.00
2018-03-04T01:26:49.119Z,0.00
2018-03-04T01:27:49.131Z,0.00
2018-03-04T01:28:49.140Z,0.00
2018-03-04T01:29:49.156Z,0.00
2018-03-04T01:30:49.162Z,0.00
2018-03-04T01:31:49.177Z,0.00
2018-03-04T01:32:49.191Z,0.00
2018-03-04T01:33:49.201Z,0.00
2018-03-04T01:34:49.212Z,0.00
2018-03-04T01:35:49.232Z,0.00
2018-03-04T01:36:49.246Z,0.00
2018-03-04T01:37:49.249Z,0.00
2018-03-04T01:38:49.264Z,0.00
2018-03-04T01:39:49.273Z,0.00
2018-03-04T01:40:49.286Z,0.00
2018-03-04T01:41:49.295Z,0.00
2018-03-04T01:42:49.304Z,0.00
2018-03-04T01:43:49.321Z,0.00
2018-03-04T01:44:49.330Z,0.00
2018-03-04T01:45:49.340Z,0.00
2018-03-04T01:46:49.357Z,0.00
2018-03-04T01:47:49.372Z,0.00
2018-03-04T01:48:49.380Z,0.00
2018-03-04T01:49:49.393Z,0.00
2018-03-04T01:50:49.405Z,0.00
2018-03-04T01:51:49.429Z,0.00
2018-03-04T01:52:49.434Z,0.00
2018-03-04T01:53:49.440Z,0.00
2018-03-04T01:54:49.453Z,0.00
2018-03-04T01:55:49.464Z,0.00
2018-03-04T01:56:49.474Z,0.00
2018-03-04T01:57:49.485Z,0.00
2018-03-04T01:58:49.502Z,0.00
2018-03-04T01:59:49.517Z,0.00
2018-03-04T02:00:49.524Z,0.00
2018-03-04T02:01:49.546Z,0.00
2018-03-04T02:02:49.546Z,0.00
2018-03-04T02:03:49.562Z,0.00
2018-03-04T02:04:49.572Z,0.00
2018-03-04T02:05:49.587Z,0.00
2018-03-04T02:06:49.594Z,0.00
2018-03-04T02:07:49.604Z,0.00
2018-03-04T02:08:49.619Z,0.00
2018-03-04T02:09:49.630Z,0.00
2018-03-04T02:10:49.646Z,0.00
2018-03-04T02:11:49.653Z,0.00
2018-03-04T02:12:49.666Z,0.00
2018-03-04T02:13:49.679Z,0.00
2018-03-04T02:14:49.691Z,0.00
2018-03-04T02:15:49.703Z,0.00
2018-03-04T02:16:49.721Z,0.00
2018-03-04T02:17:49.727Z,0.00
2018-03-04T02:18:49.740Z,0.00
2018-03-04T02:19:49.748Z,0.00
2018-03-04T02:20:49.760Z,0.00
2018-03-04T02:21:49.773Z,0.00
2018-03-04T02:22:49.786Z,0.00
2018-03-04T02:23:49.797Z,0.00
2018-03-04T02:24:49.807Z,0.00
2018-03-04T02:25:49.818Z,0.00
2018-03-04T02:26:49.831Z,0.00
2018-03-04T02:27:49.841Z,0.00
2018-03-04T02:28:49.859Z,0.00
2018-03-04T02:29:49.868Z,0.00
2018-03-04T02:30:49.886Z,0.00
2018-03-04T02:31:49.898Z,0.00
2018-03-04T02:32:49.903Z,0.00
2018-03-04T02:33:49.916Z,0.00
2018-03-04T02:34:49.928Z,0.00
2018-03-04T02:35:49.936Z,0.00
2018-03-04T02:36:49.956Z,0.00
2018-03-04T02:37:49.962Z,0.00
2018-03-04T02:38:49.970Z,0.00
2018-03-04T02:39:49.987Z,0.00
2018-03-04T02:40:49.998Z,0.00
2018-03-04T02:41:50.009Z,0.00
2018-03-04T02:42:50.024Z,0.00
2018-03-04T02:43:50.039Z,0.00
2018-03-04T02:44:50.051Z,0.00
2018-03-04T02:45:50.057Z,0.00
2018-03-04T02:46:50.066Z,0.00
2018-03-04T02:47:50.078Z,0.00
2018-03-04T02:48:50.092Z,0.00
2018-03-04T02:49:50.106Z,0.00
2018-03-04T02:50:50.120Z,0.00
2018-03-04T02:51:50.126Z,0.00
2018-03-04T02:52:50.140Z,0.00
2018-03-04T02:53:50.151Z,0.00
2018-03-04T02:54:50.165Z,0.00
2018-03-04T02:55:50.185Z,0.00
2018-03-04T02:56:50.190Z,0.00
2018-03-04T02:57:50.195Z,0.00
2018-03-04T02:58:50.211Z,0.00
2018-03-04T02:59:50.228Z,0.00
2018-03-04T03:00:50.236Z,0.00
2018-03-04T03:01:50.249Z,0.00
2018-03-04T03:02:50.262Z,0.00
2018-03-04T03:03:50.266Z,0.00
2018-03-04T03:04:50.284Z,0.00
2018-03-04T03:05:50.288Z,0.00
2018-03-04T03:06:50.310Z,0.00
2018-03-04T03:07:50.319Z,0.00
2018-03-04T03:08:50.334Z,0.00
2018-03-04T03:09:50.340Z,0.00
2018-03-04T03:10:50.354Z,0.00
2018-03-04T03:11:50.391Z,0.00
2018-03-04T03:12:50.376Z,0.00
2018-03-04T03:13:50.383Z,0.00
2018-03-04T03:14:50.403Z,0.00
2018-03-04T03:15:50.412Z,0.00
2018-03-04T03:16:50.427Z,0.00
2018-03-04T03:17:50.435Z,0.00
2018-03-04T03:18:50.452Z,0.00
2018-03-04T03:19:50.454Z,0.00
2018-03-04T03:20:50.471Z,0.00
2018-03-04T03:21:50.479Z,0.00
2018-03-04T03:22:50.494Z,0.00
2018-03-04T03:23:50.508Z,0.00
2018-03-04T03:24:50.514Z,0.00
2018-03-04T03:25:50.527Z,0.00
2018-03-04T03:26:50.543Z,0.00
2018-03-04T03:27:50.556Z,0.00
2018-03-04T03:28:50.563Z,0.00
2018-03-04T03:29:50.574Z,0.00
2018-03-04T03:30:50.589Z,0.00
2018-03-04T03:31:50.600Z,0.00
2018-03-04T03:32:50.613Z,0.00
2018-03-04T03:33:50.622Z,0.00
2018-03-04T03:34:50.636Z,0.00
2018-03-04T03:35:50.647Z,0.00
2018-03-04T03:36:50.666Z,0.00
2018-03-04T03:37:50.672Z,0.00
2018-03-04T03:38:50.683Z,0.00
2018-03-04T03:39:50.697Z,0.00
2018-03-04T03:40:50.708Z,0.00
2018-03-04T03:41:50.717Z,0.00
2018-03-04T03:42:50.731Z,0.00
2018-03-04T03:43:50.746Z,0.00
2018-03-04T03:44:50.752Z,0.00
2018-03-04T03:45:50.763Z,0.00
2018-03-04T03:46:50.780Z,0.00
2018-03-04T03:47:50.793Z,0.00
2018-03-04T03:48:50.802Z,0.00
2018-03-04T03:49:50.814Z,0.00
2018-03-04T03:50:50.827Z,0.00
2018-03-04T03:51:50.839Z,0.00
2018-03-04T03:52:50.847Z,0.00
2018-03-04T03:53:50.861Z,0.00
2018-03-04T03:54:50.875Z,0.00
2018-03-04T03:55:50.886Z,0.00
2018-03-04T03:56:50.900Z,0.00
2018-03-04T03:57:50.906Z,0.00
2018-03-04T03:58:50.920Z,0.00
2018-03-04T03:59:50.930Z,0.00
2018-03-04T04:00:50.941Z,0.00
2018-03-04T04:01:50.952Z,0.00
2018-03-04T04:02:50.965Z,0.00
2018-03-04T04:03:50.984Z,0.00
2018-03-04T04:04:50.987Z,0.00
2018-03-04T04:05:51.005Z,0.00
2018-03-04T04:06:51.011Z,0.00
2018-03-04T04:07:51.023Z,0.00
2018-03-04T04:08:51.037Z,0.00
2018-03-04T04:09:51.050Z,0.00
2018-03-04T04:10:51.063Z,0.00
2018-03-04T04:11:51.074Z,0.00
2018-03-04T04:12:51.085Z,0.00
2018-03-04T04:13:51.095Z,0.00
2018-03-04T04:14:51.116Z,0.00
2018-03-04T04:15:51.121Z,0.00
2018-03-04T04:16:51.133Z,0.00
2018-03-04T04:17:51.143Z,0.00
2018-03-04T04:18:51.158Z,0.00
2018-03-04T04:19:51.166Z,0.00
2018-03-04T04:20:51.180Z,0.00
2018-03-04T04:21:51.194Z,0.00
2018-03-04T04:22:51.202Z,0.00
2018-03-04T04:23:51.215Z,0.00
2018-03-04T04:24:51.224Z,0.00
2018-03-04T04:25:51.238Z,0.00
2018-03-04T04:26:51.250Z,0.00
2018-03-04T04:27:51.264Z,0.00
2018-03-04T04:28:51.275Z,0.00
2018-03-04T04:29:51.284Z,0.00
2018-03-04T04:30:51.298Z,0.00
2018-03-04T04:31:51.341Z,0.00
2018-03-04T04:32:51.324Z,0.00
2018-03-04T04:33:51.338Z,0.00
2018-03-04T04:34:51.344Z,0.00
2018-03-04T04:35:51.359Z,0.00
2018-03-04T04:36:51.370Z,0.00
2018-03-04T04:37:51.379Z,0.00
2018-03-04T04:38:51.394Z,0.00
2018-03-04T04:39:51.410Z,0.00
2018-03-04T04:40:51.420Z,0.00
2018-03-04T04:41:51.428Z,0.00
2018-03-04T04:42:51.443Z,0.00
2018-03-04T04:43:51.459Z,0.00
2018-03-04T04:44:51.471Z,0.00
2018-03-04T04:45:51.484Z,0.00
2018-03-04T04:46:51.491Z,0.00
2018-03-04T04:47:51.504Z,0.00
2018-03-04T04:48:51.517Z,0.00
2018-03-04T04:49:51.528Z,0.00
2018-03-04T04:50:51.544Z,0.00
2018-03-04T04:51:51.552Z,0.00
2018-03-04T04:52:51.570Z,0.00
2018-03-04T04:53:51.618Z,0.00
2018-03-04T04:54:51.595Z,0.00
2018-03-04T04:55:51.605Z,0.00
2018-03-04T04:56:51.615Z,0.00
2018-03-04T04:57:51.631Z,0.00
2018-03-04T04:58:51.637Z,0.00
2018-03-04T04:59:51.653Z,0.00
2018-03-04T05:00:51.662Z,0.00
2018-03-04T05:01:51.672Z,0.00
2018-03-04T05:02:51.691Z,0.00
2018-03-04T05:03:51.703Z,0.00
2018-03-04T05:04:51.711Z,0.00
2018-03-04T05:05:51.721Z,0.00
2018-03-04T05:06:51.736Z,0.00
2018-03-04T05:07:51.745Z,0.00
2018-03-04T05:08:51.762Z,0.00
2018-03-04T05:09:51.777Z,0.00
2018-03-04T05:10:51.787Z,0.00
2018-03-04T05:11:51.801Z,0.00
2018-03-04T05:12:51.809Z,0.00
2018-03-04T05:13:51.823Z,0.00
2018-03-04T05:14:51.834Z,0.00
2018-03-04T05:15:51.850Z,0.00
2018-03-04T05:16:51.863Z,0.00
2018-03-04T05:17:51.872Z,0.00
2018-03-04T05:18:51.885Z,0.00
2018-03-04T05:19:51.897Z,0.00
2018-03-04T05:20:51.908Z,0.00
2018-03-04T05:21:51.922Z,0.00
2018-03-04T05:22:51.930Z,0.00
2018-03-04T05:23:51.945Z,0.00
2018-03-04T05:24:51.955Z,0.00
2018-03-04T05:25:51.971Z,0.00
2018-03-04T05:26:51.982Z,0.00
2018-03-04T05:27:51.993Z,0.00
2018-03-04T05:28:52.006Z,0.00
2018-03-04T05:29:52.018Z,0.00
2018-03-04T05:30:52.030Z,0.00
2018-03-04T05:31:52.044Z,0.00
2018-03-04T05:32:52.057Z,0.00
2018-03-04T05:33:52.065Z,0.00
2018-03-04T05:34:52.079Z,0.00
2018-03-04T05:35:52.093Z,0.00
2018-03-04T05:36:52.107Z,0.00
2018-03-04T05:37:52.115Z,0.00
2018-03-04T05:38:52.126Z,0.00
2018-03-04T05:39:52.140Z,0.00
2018-03-04T05:40:52.155Z,0.00
2018-03-04T05:41:52.160Z,0.00
2018-03-04T05:42:52.177Z,0.00
2018-03-04T05:43:52.192Z,0.00
2018-03-04T05:44:52.212Z,0.00
2018-03-04T05:45:52.208Z,0.00
2018-03-04T05:46:52.229Z,0.00
2018-03-04T05:47:52.234Z,0.00
2018-03-04T05:48:52.246Z,0.00
2018-03-04T05:49:52.258Z,0.00
2018-03-04T05:50:52.267Z,0.00
2018-03-04T05:51:52.286Z,5.63
2018-03-04T05:52:52.296Z,5.63
2018-03-04T05:53:52.315Z,5.63
2018-03-04T05:54:52.327Z,5.63
2018-03-04T05:55:52.334Z,5.63
2018-03-04T05:56:52.346Z,5.63
2018-03-04T05:57:52.357Z,5.63
2018-03-04T05:58:52.365Z,11.25
2018-03-04T05:59:52.392Z,11.25
2018-03-04T06:00:52.403Z,11.25
2018-03-04T06:01:52.403Z,11.25
2018-03-04T06:02:52.412Z,11.25
2018-03-04T06:03:52.427Z,16.88
2018-03-04T06:04:52.443Z,16.88
2018-03-04T06:05:52.453Z,16.88
2018-03-04T06:06:52.465Z,16.88
2018-03-04T06:07:52.475Z,16.88
2018-03-04T06:08:52.486Z,16.88
2018-03-04T06:09:52.502Z,22.50
2018-03-04T06:10:52.512Z,22.50
2018-03-04T06:11:52.524Z,22.50
2018-03-04T06:12:52.533Z,22.50
2018-03-04T06:13:52.548Z,22.50
2018-03-04T06:14:52.558Z,22.50
2018-03-04T06:15:52.571Z,22.50
2018-03-04T06:16:52.582Z,28.13
2018-03-04T06:17:52.593Z,28.13
2018-03-04T06:18:52.607Z,28.13
2018-03-04T06:19:52.620Z,33.75
2018-03-04T06:20:52.631Z,33.75
2018-03-04T06:21:52.641Z,33.75
2018-03-04T06:22:52.660Z,33.75
2018-03-04T06:23:52.671Z,39.38
2018-03-04T06:24:52.681Z,39.38
2018-03-04T06:25:52.691Z,39.38
2018-03-04T06:26:52.706Z,39.38
2018-03-04T06:27:52.716Z,39.38
2018-03-04T06:28:52.727Z,39.38
2018-03-04T06:29:52.740Z,39.38
2018-03-04T06:30:52.752Z,45.00
2018-03-04T06:31:52.768Z,45.00
2018-03-04T06:32:52.776Z,50.63
2018-03-04T06:33:52.785Z,56.25
2018-03-04T06:34:52.804Z,56.25
2018-03-04T06:35:52.814Z,50.63
2018-03-04T06:36:52.820Z,50.63
2018-03-04T06:37:52.836Z,50.63
2018-03-04T06:38:52.857Z,50.63
2018-03-04T06:39:52.860Z,50.63
2018-03-04T06:40:52.875Z,45.00
2018-03-04T06:41:52.884Z,39.38
2018-03-04T06:42:52.902Z,39.38
2018-03-04T06:43:52.908Z,39.38
2018-03-04T06:44:52.921Z,39.38
2018-03-04T06:45:52.937Z,39.38
2018-03-04T06:46:52.944Z,39.38
2018-03-04T06:47:52.956Z,39.38
2018-03-04T06:48:52.969Z,45.00
2018-03-04T06:49:52.983Z,45.00
2018-03-04T06:50:52.998Z,45.00
2018-03-04T06:51:53.015Z,50.63
2018-03-04T06:52:53.016Z,56.25
2018-03-04T06:53:53.037Z,56.25
2018-03-04T06:54:53.040Z,56.25
2018-03-04T06:55:53.058Z,61.88
2018-03-04T06:56:53.067Z,61.88
2018-03-04T06:57:53.095Z,61.88
2018-03-04T06:58:53.092Z,67.50
2018-03-04T06:59:53.100Z,73.13
2018-03-04T07:00:53.120Z,73.13
2018-03-04T07:01:53.130Z,73.13
2018-03-04T07:02:53.140Z,73.13
2018-03-04T07:03:53.154Z,73.13
2018-03-04T07:04:53.206Z,78.75
2018-03-04T07:05:53.183Z,78.75
2018-03-04T07:06:53.187Z,84.38
2018-03-04T07:07:53.202Z,90.00
2018-03-04T07:08:53.219Z,95.63
2018-03-04T07:09:53.231Z,101.25
2018-03-04T07:10:53.241Z,106.88
2018-03-04T07:11:53.254Z,112.50
2018-03-04T07:12:53.270Z,112.50
2018-03-04T07:13:53.280Z,112.50
2018-03-04T07:14:53.292Z,112.50
2018-03-04T07:15:53.305Z,118.13
2018-03-04T07:16:53.324Z,118.13
2018-03-04T07:17:53.327Z,118.13
2018-03-04T07:18:53.343Z,118.13
2018-03-04T07:19:53.357Z,118.13
2018-03-04T07:20:53.373Z,118.13
2018-03-04T07:21:53.381Z,118.13
2018-03-04T07:22:53.393Z,123.75
2018-03-04T07:23:53.409Z,123.75
2018-03-04T07:24:53.421Z,123.75
2018-03-04T07:25:53.433Z,123.75
2018-03-04T07:26:53.447Z,123.75
2018-03-04T07:27:53.464Z,129.38
2018-03-04T07:28:53.471Z,135.00
2018-03-04T07:29:53.492Z,140.63
2018-03-04T07:30:53.498Z,151.88
2018-03-04T07:31:53.512Z,157.50
2018-03-04T07:32:53.527Z,168.75
2018-03-04T07:33:53.536Z,174.38
2018-03-04T07:34:53.556Z,180.00
2018-03-04T07:35:53.566Z,180.00
2018-03-04T07:36:53.577Z,185.63
2018-03-04T07:37:53.596Z,185.63
2018-03-04T07:38:53.605Z,191.25
2018-03-04T07:39:53.615Z,191.25
2018-03-04T07:40:53.630Z,196.88
2018-03-04T07:41:53.645Z,196.88
2018-03-04T07:42:53.654Z,196.88
2018-03-04T07:43:53.674Z,196.88
2018-03-04T07:44:53.685Z,196.88
2018-03-04T07:45:53.695Z,196.88
2018-03-04T07:46:53.718Z,196.88
2018-03-04T07:47:53.728Z,196.88
2018-03-04T07:48:53.744Z,196.88
2018-03-04T07:49:53.749Z,202.50
2018-03-04T07:50:53.769Z,213.75
2018-03-04T07:51:53.784Z,230.63
2018-03-04T07:52:53.790Z,247.50
2018-03-04T07:53:53.805Z,270.00
2018-03-04T07:54:53.817Z,298.13
2018-03-04T07:55:53.835Z,331.88
2018-03-04T07:56:53.845Z,348.75
2018-03-04T07:57:53.860Z,371.25
2018-03-04T07:58:53.878Z,393.75
2018-03-04T07:59:53.885Z,405.00
2018-03-04T08:00:53.917Z,416.25
2018-03-04T08:01:53.915Z,421.88
2018-03-04T08:02:53.924Z,427.50
2018-03-04T08:03:53.943Z,427.50
2018-03-04T08:04:53.956Z,427.50
2018-03-04T08:05:53.974Z,421.88
2018-03-04T08:06:53.984Z,416.25
2018-03-04T08:07:53.996Z,410.63
2018-03-04T08:08:54.019Z,405.00
2018-03-04T08:09:54.023Z,405.00
2018-03-04T08:10:54.038Z,410.63
2018-03-04T08:11:54.051Z,421.88
2018-03-04T08:12:54.068Z,427.50
2018-03-04T08:13:54.079Z,433.13
2018-03-04T08:14:54.094Z,433.13
2018-03-04T08:15:54.109Z,427.50
2018-03-04T08:16:54.129Z,405.00
2018-03-04T08:17:54.145Z,393.75
2018-03-04T08:18:54.156Z,376.88
2018-03-04T08:19:54.173Z,371.25
2018-03-04T08:20:54.184Z,371.25
2018-03-04T08:21:54.199Z,376.88
2018-03-04T08:22:54.209Z,393.75
2018-03-04T08:23:54.223Z,410.63
2018-03-04T08:24:54.241Z,421.88
2018-03-04T08:25:54.257Z,416.25
2018-03-04T08:26:54.270Z,410.63
2018-03-04T08:27:54.292Z,410.63
2018-03-04T08:28:54.297Z,421.88
2018-03-04T08:29:54.313Z,433.13
2018-03-04T08:30:54.336Z,444.38
2018-03-04T08:31:54.342Z,461.25
2018-03-04T08:32:54.358Z,466.88
2018-03-04T08:33:54.369Z,461.25
2018-03-04T08:34:54.385Z,450.00
2018-03-04T08:35:54.398Z,444.38
2018-03-04T08:36:54.418Z,438.75
2018-03-04T08:37:54.432Z,438.75
2018-03-04T08:38:54.452Z,438.75
2018-03-04T08:39:54.465Z,438.75
2018-03-04T08:40:54.472Z,450.00
2018-03-04T08:41:54.487Z,461.25
2018-03-04T08:42:54.502Z,472.50
2018-03-04T08:43:54.529Z,483.75
2018-03-04T08:44:54.539Z,495.00
2018-03-04T08:45:54.546Z,506.25
2018-03-04T08:46:54.565Z,511.88
2018-03-04T08:47:54.581Z,511.88
2018-03-04T08:48:54.591Z,506.25
2018-03-04T08:49:54.611Z,500.63
2018-03-04T08:50:54.627Z,489.38
2018-03-04T08:51:54.637Z,478.13
2018-03-04T08:52:54.648Z,472.50
2018-03-04T08:53:54.670Z,466.88
2018-03-04T08:54:54.706Z,461.25
2018-03-04T08:55:54.695Z,444.38
2018-03-04T08:56:54.711Z,427.50
2018-03-04T08:57:54.732Z,416.25
2018-03-04T08:58:54.745Z,410.63
2018-03-04T08:59:54.759Z,399.38
2018-03-04T09:00:54.772Z,393.75
2018-03-04T09:01:54.791Z,388.13
2018-03-04T09:02:54.800Z,388.13
2018-03-04T09:03:54.816Z,382.50
2018-03-04T09:04:54.835Z,376.88
2018-03-04T09:05:54.852Z,371.25
2018-03-04T09:06:54.860Z,371.25
2018-03-04T09:07:54.880Z,376.88
2018-03-04T09:08:54.890Z,388.13
2018-03-04T09:09:54.911Z,382.50
2018-03-04T09:10:54.925Z,376.88
2018-03-04T09:11:54.944Z,376.88
2018-03-04T09:12:54.955Z,371.25
2018-03-04T09:13:54.967Z,365.63
2018-03-04T09:14:54.988Z,360.00
2018-03-04T09:15:55.000Z,354.38
2018-03-04T09:16:55.023Z,360.00
2018-03-04T09:17:55.034Z,376.88
2018-03-04T09:18:55.049Z,388.13
2018-03-04T09:19:55.064Z,388.13
2018-03-04T09:20:55.075Z,388.13
2018-03-04T09:21:55.089Z,393.75
2018-03-04T09:22:55.105Z,399.38
2018-03-04T09:23:55.120Z,416.25
2018-03-04T09:24:55.143Z,421.88
2018-03-04T09:25:55.150Z,416.25
2018-03-04T09:26:55.173Z,410.63
2018-03-04T09:27:55.184Z,410.63
2018-03-04T09:28:55.198Z,416.25
2018-03-04T09:29:55.211Z,421.88
2018-03-04T09:30:55.224Z,416.25
2018-03-04T09:31:55.243Z,405.00
2018-03-04T09:32:55.269Z,399.38
2018-03-04T09:33:55.276Z,399.38
2018-03-04T09:34:55.288Z,399.38
2018-03-04T09:35:55.306Z,399.38
2018-03-04T09:36:55.317Z,399.38
2018-03-04T09:37:55.332Z,405.00
2018-03-04T09:38:55.356Z,416.25
2018-03-04T09:39:55.372Z,416.25
2018-03-04T09:40:55.382Z,410.63
2018-03-04T09:41:55.397Z,399.38
2018-03-04T09:42:55.413Z,399.38
2018-03-04T09:43:55.433Z,388.13
2018-03-04T09:44:55.448Z,388.13
2018-03-04T09:45:55.463Z,399.38
2018-03-04T09:46:55.473Z,421.88
2018-03-04T09:47:55.487Z,444.38
2018-03-04T09:48:55.502Z,478.13
2018-03-04T09:49:55.519Z,506.25
2018-03-04T09:50:55.532Z,540.00
2018-03-04T09:51:55.551Z,568.13
2018-03-04T09:52:55.573Z,590.63
2018-03-04T09:53:55.578Z,607.50
2018-03-04T09:54:55.598Z,635.63
2018-03-04T09:55:55.614Z,646.88
2018-03-04T09:56:55.636Z,652.50
2018-03-04T09:57:55.642Z,658.13
2018-03-04T09:58:55.662Z,669.38
2018-03-04T09:59:55.673Z,680.63
2018-03-04T10:00:55.688Z,691.88
2018-03-04T10:01:55.711Z,703.13
2018-03-04T10:02:55.723Z,714.38
2018-03-04T10:03:55.737Z,725.63
2018-03-04T10:04:55.752Z,731.25
2018-03-04T10:05:55.777Z,725.63
2018-03-04T10:06:55.787Z,731.25
2018-03-04T10:07:55.805Z,736.88
2018-03-04T10:08:55.824Z,731.25
2018-03-04T10:09:55.838Z,691.88
2018-03-04T10:10:55.855Z,646.88
2018-03-04T10:11:55.870Z,607.50
2018-03-04T10:12:55.886Z,579.38
2018-03-04T10:13:55.901Z,562.50
2018-03-04T10:14:55.922Z,556.88
2018-03-04T10:15:55.938Z,573.75
2018-03-04T10:16:55.951Z,579.38
2018-03-04T10:17:55.965Z,590.63
2018-03-04T10:18:55.981Z,630.00
2018-03-04T10:19:56.003Z,697.50
2018-03-04T10:20:56.019Z,770.63
2018-03-04T10:21:56.035Z,798.75
2018-03-04T10:22:56.054Z,770.63
2018-03-04T10:23:56.069Z,708.75
2018-03-04T10:24:56.084Z,663.75
2018-03-04T10:25:56.107Z,652.50
2018-03-04T10:26:56.113Z,630.00
2018-03-04T10:27:56.132Z,624.38
2018-03-04T10:28:56.156Z,618.75
2018-03-04T10:29:56.168Z,635.63
2018-03-04T10:30:56.184Z,658.13
2018-03-04T10:31:56.200Z,697.50
2018-03-04T10:32:56.216Z,703.13
2018-03-04T10:33:56.235Z,691.88
2018-03-04T10:34:56.250Z,691.88
2018-03-04T10:35:56.266Z,720.00
2018-03-04T10:36:56.282Z,731.25
2018-03-04T10:37:56.300Z,736.88
2018-03-04T10:38:56.325Z,731.25
2018-03-04T10:39:56.334Z,742.50
2018-03-04T10:40:56.357Z,748.13
2018-03-04T10:41:56.370Z,736.88
2018-03-04T10:42:56.384Z,720.00
2018-03-04T10:43:56.401Z,725.63
2018-03-04T10:44:56.424Z,736.88
2018-03-04T10:45:56.453Z,759.38
2018-03-04T10:46:56.457Z,770.63
2018-03-04T10:47:56.473Z,793.13
2018-03-04T10:48:56.494Z,798.75
2018-03-04T10:49:56.508Z,793.13
2018-03-04T10:50:56.524Z,765.00
2018-03-04T10:51:56.545Z,748.13
2018-03-04T10:52:56.563Z,725.63
2018-03-04T10:53:56.580Z,720.00
2018-03-04T10:54:56.594Z,708.75
2018-03-04T10:55:56.610Z,703.13
2018-03-04T10:56:56.625Z,703.13
2018-03-04T10:57:56.647Z,691.88
2018-03-04T10:58:56.667Z,686.25
2018-03-04T10:59:56.680Z,714.38
2018-03-04T11:00:56.699Z,973.13
2018-03-04T11:01:56.712Z,832.50
2018-03-04T11:02:56.732Z,686.25
2018-03-04T11:03:56.810Z,613.13
2018-03-04T11:04:56.770Z,585.00
2018-03-04T11:05:56.785Z,556.88
2018-03-04T11:06:56.805Z,556.88
2018-03-04T11:07:56.821Z,568.13
2018-03-04T11:08:56.839Z,607.50
2018-03-04T11:09:56.867Z,630.00
2018-03-04T11:10:56.873Z,658.13
2018-03-04T11:11:56.888Z,697.50
2018-03-04T11:12:56.916Z,720.00
2018-03-04T11:13:56.922Z,736.88
2018-03-04T11:14:56.941Z,736.88
2018-03-04T11:15:56.956Z,742.50
2018-03-04T11:16:56.985Z,765.00
2018-03-04T11:17:56.993Z,787.50
2018-03-04T11:18:57.015Z,888.75
2018-03-04T11:19:57.031Z,888.75
2018-03-04T11:20:57.050Z,950.63
2018-03-04T11:21:57.077Z,1035.00
2018-03-04T11:22:57.084Z,1215.00
2018-03-04T11:23:57.103Z,1091.25
2018-03-04T11:24:57.130Z,1209.38
2018-03-04T11:25:57.132Z,973.13
2018-03-04T11:26:57.155Z,984.38
2018-03-04T11:27:57.176Z,1198.13
2018-03-04T11:28:57.197Z,1327.50
2018-03-04T11:29:57.206Z,1625.63
2018-03-04T11:30:57.220Z,1479.38
2018-03-04T11:31:57.242Z,1676.25
2018-03-04T11:32:57.261Z,1473.75
2018-03-04T11:33:57.298Z,1558.13
2018-03-04T11:34:57.311Z,1524.38
2018-03-04T11:35:57.315Z,1631.25
2018-03-04T11:36:57.341Z,1423.13
2018-03-04T11:37:57.355Z,1046.25
2018-03-04T11:38:57.372Z,945.00
2018-03-04T11:39:57.397Z,905.63
2018-03-04T11:40:57.416Z,781.88
2018-03-04T11:41:57.436Z,781.88
2018-03-04T11:42:57.451Z,815.63
2018-03-04T11:43:57.474Z,753.75
2018-03-04T11:44:57.491Z,770.63
2018-03-04T11:45:57.519Z,776.25
2018-03-04T11:46:57.535Z,815.63
2018-03-04T11:47:57.551Z,905.63
2018-03-04T11:48:57.569Z,973.13
2018-03-04T11:49:57.592Z,1018.13
2018-03-04T11:50:57.609Z,1029.38
2018-03-04T11:51:57.628Z,1231.88
2018-03-04T11:52:57.645Z,1434.38
2018-03-04T11:53:57.667Z,1479.38
2018-03-04T11:54:57.689Z,1181.25
2018-03-04T11:55:57.713Z,1012.50
2018-03-04T11:56:57.734Z,950.63
2018-03-04T11:57:57.748Z,832.50
2018-03-04T11:58:57.764Z,826.88
2018-03-04T11:59:57.793Z,832.50
2018-03-04T12:00:57.807Z,866.25
2018-03-04T12:01:57.834Z,877.50
2018-03-04T12:02:57.854Z,933.75
2018-03-04T12:03:57.916Z,871.88
2018-03-04T12:04:57.889Z,855.00
2018-03-04T12:05:57.938Z,871.88
2018-03-04T12:06:57.920Z,900.00
2018-03-04T12:07:57.954Z,911.25
2018-03-04T12:08:57.963Z,922.50
2018-03-04T12:09:57.987Z,922.50
2018-03-04T12:10:57.998Z,945.00
2018-03-04T12:11:58.018Z,995.63
2018-03-04T12:12:58.043Z,1051.88
2018-03-04T12:13:58.069Z,1108.13
2018-03-04T12:14:58.087Z,1175.63
2018-03-04T12:15:58.100Z,1237.50
2018-03-04T12:16:58.121Z,1299.38
2018-03-04T12:17:58.138Z,1479.38
2018-03-04T12:18:58.161Z,1996.88
2018-03-04T12:19:58.182Z,2491.88
2018-03-04T12:20:58.206Z,2846.25
2018-03-04T12:21:58.218Z,2998.13
2018-03-04T12:22:58.241Z,3346.88
2018-03-04T12:23:58.277Z,3622.50
2018-03-04T12:24:58.277Z,3645.00
2018-03-04T12:25:58.306Z,3363.75
2018-03-04T12:26:58.322Z,3588.75
2018-03-04T12:27:58.358Z,3504.38
2018-03-04T12:28:58.382Z,3476.25
2018-03-04T12:29:58.391Z,2925.00
2018-03-04T12:30:58.421Z,3481.88
2018-03-04T12:31:58.441Z,3420.00
2018-03-04T12:32:58.461Z,3155.63
2018-03-04T12:33:58.487Z,1963.13
2018-03-04T12:34:58.515Z,1771.88
2018-03-04T12:35:58.539Z,2986.88
2018-03-04T12:36:58.576Z,2441.25
2018-03-04T12:37:58.586Z,1648.13
2018-03-04T12:38:58.620Z,1642.50
2018-03-04T12:39:58.640Z,2137.50
2018-03-04T12:40:58.671Z,2812.50
2018-03-04T12:41:58.695Z,2998.13
2018-03-04T12:42:58.718Z,3060.00
2018-03-04T12:43:58.750Z,3403.13
2018-03-04T12:44:58.771Z,3566.25
2018-03-04T12:45:58.803Z,3600.00
2018-03-04T12:46:58.831Z,3768.75
2018-03-04T12:47:58.846Z,3476.25
2018-03-04T12:48:58.874Z,3751.88
2018-03-04T12:49:58.904Z,3015.00
2018-03-04T12:50:58.934Z,3971.25
2018-03-04T12:51:58.957Z,4078.13